Time;durP1;ratioP1;P1;durP2;ratioP2;P2;SDS_P1;SDS_P2;PMS_P1;PMS_P2;Temp;Humidity;BMP_temperature;BMP_pressure;BME280_temperature;BME280_humidity;BME280_pressure;Samples;Min_cycle;Max_cycle;Signal;HPM_P1;HPM_P2
2023/06/18 00:02:02;;;;;;;12.00;7.90;;;;;;;17.40;100.00;101452.91;5094499;28;20107;-79
2023/06/18 00:04:28;;;;;;;13.57;7.07;;;;;;;17.41;100.00;101461.84;5094555;28;20506;-81
2023/06/18 00:06:54;;;;;;;14.13;8.48;;;;;;;17.39;100.00;101455.78;5094606;28;20023;-80
2023/06/18 00:09:20;;;;;;;13.30;7.55;;;;;;;17.39;100.00;101453.09;5094013;28;20472;-80
2023/06/18 00:11:45;;;;;;;14.50;8.10;;;;;;;17.36;100.00;101448.91;5094337;28;20044;-81
2023/06/18 00:14:11;;;;;;;11.60;7.25;;;;;;;17.34;100.00;101445.53;5094490;28;20426;-79
2023/06/18 00:16:36;;;;;;;13.60;8.40;;;;;;;17.31;100.00;101445.88;5072251;28;20044;-79
2023/06/18 00:19:02;;;;;;;13.98;8.88;;;;;;;17.27;100.00;101445.38;5074420;28;20029;-80
2023/06/18 00:21:27;;;;;;;10.05;7.97;;;;;;;17.24;100.00;101442.16;5074088;28;20052;-79
2023/06/18 00:23:52;;;;;;;12.60;8.65;;;;;;;17.22;100.00;101446.88;5073467;28;20560;-80
2023/06/18 00:26:18;;;;;;;14.80;8.52;;;;;;;17.15;100.00;101446.69;5073687;28;20032;-80
2023/06/18 00:28:44;;;;;;;11.02;8.10;;;;;;;17.10;100.00;101432.94;5073340;28;20024;-79
2023/06/18 00:31:11;;;;;;;12.68;9.20;;;;;;;17.07;100.00;101435.97;5073398;28;20032;-80
2023/06/18 00:33:37;;;;;;;13.20;8.40;;;;;;;17.03;100.00;101434.59;5073237;28;20450;-79
2023/06/18 00:36:04;;;;;;;16.13;9.18;;;;;;;16.99;100.00;101436.81;5073759;28;20338;-80
2023/06/18 00:38:32;;;;;;;9.45;8.43;;;;;;;16.98;100.00;101439.66;5073691;28;20037;-80
2023/06/18 00:40:58;;;;;;;9.52;7.93;;;;;;;16.97;100.00;101435.28;5072739;28;20037;-80
2023/06/18 00:43:27;;;;;;;13.80;9.05;;;;;;;16.97;100.00;101435.28;5073712;28;20334;-80
2023/06/18 00:45:59;;;;;;;10.15;8.30;;;;;;;16.95;100.00;101432.75;5073176;28;20039;-81
2023/06/18 00:48:26;;;;;;;11.02;8.25;;;;;;;16.93;100.00;101429.41;5073249;28;20032;-79
2023/06/18 00:50:53;;;;;;;18.70;8.93;;;;;;;16.91;100.00;101428.72;5072839;28;20044;-79
2023/06/18 00:53:20;;;;;;;12.95;9.13;;;;;;;16.91;100.00;101423.34;5071356;28;20484;-79
2023/06/18 00:55:46;;;;;;;10.77;8.85;;;;;;;16.88;100.00;101424.53;5072028;28;20098;-79
2023/06/18 00:58:13;;;;;;;11.00;8.63;;;;;;;16.86;100.00;101423.81;5071632;28;20476;-80
2023/06/18 01:00:40;;;;;;;11.05;8.95;;;;;;;16.83;100.00;101421.47;5073070;28;20124;-79
2023/06/18 01:03:16;;;;;;;10.02;8.40;;;;;;;16.83;100.00;101420.63;5071659;28;20115;-79
2023/06/18 01:05:43;;;;;;;13.57;9.10;;;;;;;16.78;100.00;101422.97;5073409;28;20033;-80
2023/06/18 01:08:12;;;;;;;11.88;8.18;;;;;;;16.76;100.00;101420.44;5072899;28;20020;-80
2023/06/18 01:10:40;;;;;;;10.43;8.55;;;;;;;16.72;100.00;101421.78;5072955;28;20037;-79
2023/06/18 01:13:09;;;;;;;14.18;8.75;;;;;;;16.70;100.00;101416.56;5072847;28;20040;-80
2023/06/18 01:15:34;;;;;;;17.73;9.13;;;;;;;16.65;100.00;101418.09;5073217;28;20047;-79
2023/06/18 01:18:01;;;;;;;15.70;9.00;;;;;;;16.59;100.00;101416.06;5088315;28;20048;-80
2023/06/18 01:20:30;;;;;;;12.82;9.25;;;;;;;16.50;100.00;101413.34;5092859;28;20035;-80
2023/06/18 01:22:59;;;;;;;16.05;9.63;;;;;;;16.46;100.00;101408.47;5092933;28;20028;-80
2023/06/18 01:25:26;;;;;;;12.90;9.07;;;;;;;16.39;100.00;101403.75;5093409;28;20452;-79
2023/06/18 01:27:53;;;;;;;10.52;9.45;;;;;;;16.34;100.00;101408.75;5093023;28;20028;-79
2023/06/18 01:30:20;;;;;;;14.95;9.27;;;;;;;16.28;100.00;101411.25;5074781;28;20086;-80
2023/06/18 01:32:46;;;;;;;10.95;9.48;;;;;;;16.24;100.00;101404.53;5073975;28;20449;-79
2023/06/18 01:35:15;;;;;;;12.50;9.13;;;;;;;16.19;100.00;101392.44;5092877;28;20118;-79
2023/06/18 01:37:49;;;;;;;15.80;9.95;;;;;;;16.17;100.00;101404.34;5092977;28;20087;-78
2023/06/18 01:40:43;;;;;;;10.70;9.30;;;;;;;16.14;100.00;101394.78;5092842;28;20124;-79
2023/06/18 01:43:27;;;;;;;14.45;9.02;;;;;;;16.11;100.00;101399.59;5093539;28;20020;-79
2023/06/18 01:45:59;;;;;;;10.85;9.48;;;;;;;16.03;100.00;101389.69;5092583;28;20445;-79
2023/06/18 01:48:28;;;;;;;12.55;8.90;;;;;;;16.02;100.00;101394.22;5074031;28;20024;-80
2023/06/18 01:50:56;;;;;;;11.23;9.02;;;;;;;15.99;100.00;101383.81;5093071;28;20042;-79
2023/06/18 01:53:23;;;;;;;11.77;9.10;;;;;;;15.95;100.00;101384.28;5092398;28;20039;-79
2023/06/18 01:55:56;;;;;;;12.20;9.45;;;;;;;15.90;100.00;101387.47;5074723;28;20453;-79
2023/06/18 01:58:22;;;;;;;12.98;9.98;;;;;;;15.86;100.00;101375.38;5075955;28;20039;-79
2023/06/18 02:00:48;;;;;;;14.95;9.45;;;;;;;15.81;100.00;101372.34;5075990;28;20036;-79
2023/06/18 02:03:14;;;;;;;13.60;9.70;;;;;;;15.76;100.00;101375.44;5057923;28;20123;-79
2023/06/18 02:05:40;;;;;;;11.80;9.10;;;;;;;15.73;100.00;101369.56;5075634;28;20123;-79
2023/06/18 02:08:05;;;;;;;15.80;9.75;;;;;;;15.67;100.00;101369.22;5076109;28;20040;-79
2023/06/18 02:10:31;;;;;;;11.20;9.05;;;;;;;15.64;100.00;101366.81;5093377;28;20035;-79
2023/06/18 02:12:56;;;;;;;16.30;9.07;;;;;;;15.61;100.00;101367.16;5093449;28;20115;-79
2023/06/18 02:15:21;;;;;;;10.15;9.05;;;;;;;15.58;100.00;101370.16;5093808;28;20036;-79
2023/06/18 02:17:47;;;;;;;10.13;8.88;;;;;;;15.56;100.00;101377.53;5093637;28;20129;-80
2023/06/18 02:20:12;;;;;;;11.48;8.65;;;;;;;15.54;100.00;101370.63;5093947;28;20032;-79
2023/06/18 02:22:38;;;;;;;11.63;8.88;;;;;;;15.51;100.00;101369.13;5093693;28;20054;-79
2023/06/18 02:25:07;;;;;;;10.70;9.10;;;;;;;15.49;100.00;101357.69;5093687;28;20040;-79
2023/06/18 02:27:32;;;;;;;14.77;10.07;;;;;;;15.46;100.00;101368.75;5093192;28;20361;-79
2023/06/18 02:30:04;;;;;;;13.63;9.60;;;;;;;15.42;100.00;101370.91;5093820;28;20043;-79
2023/06/18 02:32:31;;;;;;;11.88;8.70;;;;;;;15.38;100.00;101356.13;5093336;28;20475;-79
2023/06/18 02:34:58;;;;;;;12.32;8.95;;;;;;;15.34;100.00;101358.28;5093267;28;20032;-79
2023/06/18 02:37:23;;;;;;;11.43;9.15;;;;;;;15.31;100.00;101365.81;5093097;28;20067;-79
2023/06/18 02:39:48;;;;;;;10.30;7.75;;;;;;;15.28;100.00;101366.13;5093538;28;20047;-79
2023/06/18 02:42:14;;;;;;;14.52;9.00;;;;;;;15.24;100.00;101365.59;5093016;28;20111;-79
2023/06/18 02:44:41;;;;;;;11.75;9.48;;;;;;;15.22;100.00;101367.59;5093787;28;20058;-79
2023/06/18 02:47:08;;;;;;;10.05;8.80;;;;;;;15.21;100.00;101360.56;5093262;28;20084;-79
2023/06/18 02:49:33;;;;;;;9.90;8.25;;;;;;;15.19;100.00;101357.19;5093356;28;20123;-79
2023/06/18 02:51:59;;;;;;;9.23;8.23;;;;;;;15.15;100.00;101356.66;5093216;28;20108;-79
2023/06/18 02:54:24;;;;;;;13.10;9.65;;;;;;;15.13;100.00;101361.31;5093313;28;20020;-79
2023/06/18 02:56:50;;;;;;;16.75;10.27;;;;;;;15.12;100.00;101358.78;5093618;28;20098;-79
2023/06/18 02:59:16;;;;;;;12.20;9.02;;;;;;;15.09;100.00;101359.97;5094018;28;20036;-79
2023/06/18 03:01:44;;;;;;;11.20;8.70;;;;;;;15.06;100.00;101354.94;5094029;28;20028;-79
2023/06/18 03:04:11;;;;;;;10.80;8.73;;;;;;;15.03;100.00;101371.28;5093484;28;20039;-79
2023/06/18 03:06:37;;;;;;;15.70;9.07;;;;;;;14.99;100.00;101369.94;5093078;28;20376;-79
2023/06/18 03:09:04;;;;;;;11.10;8.65;;;;;;;14.96;100.00;101362.22;5093243;28;20040;-79
2023/06/18 03:11:30;;;;;;;12.23;9.13;;;;;;;14.92;100.00;101364.34;5092862;28;20032;-79
2023/06/18 03:13:56;;;;;;;10.43;8.60;;;;;;;14.89;100.00;101367.34;5094093;28;20085;-78
2023/06/18 03:16:23;;;;;;;10.68;8.95;;;;;;;14.88;100.00;101359.44;5096909;28;20430;-79
2023/06/18 03:18:49;;;;;;;13.23;9.45;;;;;;;14.85;100.00;101360.59;5097078;28;20126;-78
2023/06/18 03:21:15;;;;;;;13.43;9.57;;;;;;;14.81;100.00;101362.75;5096564;28;20471;-79
2023/06/18 03:23:40;;;;;;;10.77;9.50;;;;;;;14.79;100.00;101364.75;5096591;28;20036;-79
2023/06/18 03:26:06;;;;;;;11.38;9.25;;;;;;;14.76;100.00;101370.41;5078217;28;20036;-78
2023/06/18 03:28:31;;;;;;;12.32;9.65;;;;;;;14.74;100.00;101367.03;5096447;28;20085;-79
2023/06/18 03:30:57;;;;;;;13.40;9.20;;;;;;;14.73;100.00;101369.88;5096448;28;20035;-79
2023/06/18 03:33:22;;;;;;;16.10;9.05;;;;;;;14.74;100.00;101361.69;5096119;28;20158;-79
2023/06/18 03:35:49;;;;;;;12.77;9.18;;;;;;;14.74;100.00;101359.00;5096398;28;20379;-79
2023/06/18 03:38:15;;;;;;;13.73;9.73;;;;;;;14.75;100.00;101362.50;5096705;28;20058;-79
2023/06/18 03:40:40;;;;;;;14.52;9.70;;;;;;;14.76;100.00;101362.38;5096249;28;20030;-78
2023/06/18 03:43:07;;;;;;;11.98;9.05;;;;;;;14.80;100.00;101365.59;5096199;28;20067;-79
2023/06/18 03:45:32;;;;;;;15.25;9.30;;;;;;;14.84;100.00;101363.44;5078053;28;20198;-80
2023/06/18 03:47:58;;;;;;;14.65;9.75;;;;;;;14.89;100.00;101370.00;5096415;28;20099;-78
2023/06/18 03:50:23;;;;;;;11.45;9.35;;;;;;;14.93;100.00;101363.34;5096129;28;20024;-79
2023/06/18 03:52:48;;;;;;;14.18;10.13;;;;;;;14.96;100.00;101367.56;5096055;28;20143;-79
2023/06/18 03:55:15;;;;;;;14.38;9.15;;;;;;;14.95;100.00;101360.53;5095959;28;20063;-78
2023/06/18 03:57:40;;;;;;;14.65;10.23;;;;;;;14.95;100.00;101366.72;5095997;28;20043;-78
2023/06/18 04:00:08;;;;;;;15.80;9.57;;;;;;;14.93;100.00;101365.19;5096358;28;20372;-79
2023/06/18 04:02:34;;;;;;;12.73;10.02;;;;;;;14.93;100.00;101359.84;5078230;28;20043;-79
2023/06/18 04:04:59;;;;;;;13.13;9.45;;;;;;;14.92;100.00;101360.84;5096452;28;20380;-78
2023/06/18 04:07:25;;;;;;;11.48;8.88;;;;;;;14.92;100.00;101361.66;5096039;28;20043;-79
2023/06/18 04:09:50;;;;;;;13.27;9.65;;;;;;;14.94;100.00;101366.88;5095733;28;20131;-79
2023/06/18 04:12:16;;;;;;;13.55;10.20;;;;;;;14.95;100.00;101368.56;5095686;28;20050;-79
2023/06/18 04:14:41;;;;;;;12.10;9.60;;;;;;;14.96;100.00;101373.75;5095711;28;20077;-79
2023/06/18 04:17:07;;;;;;;17.85;9.45;;;;;;;14.97;100.00;101375.44;5095368;28;20126;-78
2023/06/18 04:19:32;;;;;;;12.43;9.15;;;;;;;15.05;100.00;101373.81;5095275;28;20032;-79
2023/06/18 04:21:57;;;;;;;18.40;10.43;;;;;;;15.10;100.00;101376.88;5095203;28;20032;-79
2023/06/18 04:24:23;;;;;;;11.70;9.45;;;;;;;15.18;100.00;101371.56;5077726;28;20461;-78
2023/06/18 04:26:48;;;;;;;12.38;8.90;;;;;;;15.23;100.00;101366.59;5094516;28;20101;-79
2023/06/18 04:29:15;;;;;;;15.95;9.90;;;;;;;15.28;100.00;101369.63;5095260;28;20032;-78
2023/06/18 04:31:41;;;;;;;11.75;9.40;;;;;;;15.32;100.00;101373.69;5095916;28;20082;-78
2023/06/18 04:34:06;;;;;;;12.55;8.82;;;;;;;15.36;100.00;101371.56;5095736;28;20035;-78
2023/06/18 04:36:32;;;;;;;15.60;9.57;;;;;;;15.40;100.00;101372.06;5095238;28;20499;-78
2023/06/18 04:38:58;;;;;;;15.13;9.38;;;;;;;15.45;100.00;101378.66;5077061;28;20090;-79
2023/06/18 04:41:23;;;;;;;15.68;9.75;;;;;;;15.49;100.00;101371.94;5095119;28;20465;-79
2023/06/18 04:43:48;;;;;;;13.45;9.35;;;;;;;15.57;100.00;101371.19;5076990;28;20082;-78
2023/06/18 04:46:14;;;;;;;14.48;9.48;;;;;;;15.65;100.00;101373.06;5095127;28;20452;-78
2023/06/18 04:48:39;;;;;;;12.27;9.32;;;;;;;15.75;100.00;101380.97;5076659;28;20043;-80
2023/06/18 04:51:05;;;;;;;10.88;8.77;;;;;;;15.90;100.00;101378.56;5076423;28;20511;-79
2023/06/18 04:53:30;;;;;;;12.50;9.52;;;;;;;16.03;100.00;101381.63;5094841;28;20036;-80
2023/06/18 04:55:56;;;;;;;13.10;9.15;;;;;;;16.22;100.00;101384.03;5094800;28;20058;-80
2023/06/18 04:58:22;;;;;;;14.05;9.13;;;;;;;16.43;100.00;101380.09;5095521;28;20118;-80
2023/06/18 05:00:47;;;;;;;14.15;9.25;;;;;;;16.64;100.00;101379.59;5094834;28;20063;-80
2023/06/18 05:03:13;;;;;;;16.60;8.73;;;;;;;16.86;100.00;101379.97;5076529;28;20035;-80
2023/06/18 05:05:38;;;;;;;11.93;8.48;;;;;;;17.08;100.00;101384.72;5076405;28;20414;-80
2023/06/18 05:08:04;;;;;;;15.45;8.50;;;;;;;17.30;100.00;101381.50;5094602;28;20034;-80
2023/06/18 05:10:30;;;;;;;15.43;9.45;;;;;;;17.48;100.00;101381.28;5094751;28;20089;-80
2023/06/18 05:12:55;;;;;;;15.68;9.20;;;;;;;17.65;100.00;101376.72;5094544;28;20032;-79
2023/06/18 05:15:21;;;;;;;16.50;9.93;;;;;;;17.81;100.00;101371.28;5094506;28;20067;-80
2023/06/18 05:17:46;;;;;;;15.60;8.98;;;;;;;17.97;100.00;101370.41;5094502;28;20052;-80
2023/06/18 05:20:12;;;;;;;12.68;9.02;;;;;;;18.11;100.00;101374.22;5094145;28;20036;-80
2023/06/18 05:22:39;;;;;;;15.35;10.10;;;;;;;18.24;100.00;101373.66;5094401;28;20116;-80
2023/06/18 05:25:05;;;;;;;13.55;9.50;;;;;;;18.36;100.00;101383.00;5094485;28;20403;-78
2023/06/18 05:27:30;;;;;;;15.57;10.02;;;;;;;18.47;100.00;101387.16;5094384;28;20024;-78
2023/06/18 05:29:56;;;;;;;20.77;9.45;;;;;;;18.56;100.00;101380.69;5094718;28;20414;-78
2023/06/18 05:32:21;;;;;;;14.80;9.05;;;;;;;18.64;100.00;101388.72;5094053;28;20024;-78
2023/06/18 05:34:47;;;;;;;13.48;9.95;;;;;;;18.75;100.00;101386.63;5094146;28;20039;-79
2023/06/18 05:37:12;;;;;;;18.75;9.52;;;;;;;18.83;100.00;101382.00;5094014;28;20506;-78
2023/06/18 05:39:38;;;;;;;15.13;9.45;;;;;;;18.89;100.00;101380.47;5094836;28;20499;-79
2023/06/18 05:42:04;;;;;;;19.05;9.85;;;;;;;18.96;100.00;101381.44;5094019;28;20032;-79
2023/06/18 05:44:29;;;;;;;18.98;9.88;;;;;;;18.99;100.00;101386.47;5093914;28;20028;-79
2023/06/18 05:46:54;;;;;;;16.38;9.98;;;;;;;18.98;100.00;101398.25;5093905;28;20381;-79
2023/06/18 05:49:21;;;;;;;17.60;10.07;;;;;;;18.95;100.00;101417.50;5093855;28;20028;-78
2023/06/18 05:51:47;;;;;;;16.23;9.95;;;;;;;18.90;100.00;101449.56;5093808;28;20024;-79
2023/06/18 05:54:12;;;;;;;14.73;10.27;;;;;;;18.88;100.00;101424.63;5093978;28;20034;-78
2023/06/18 05:56:37;;;;;;;13.57;9.52;;;;;;;18.87;100.00;101411.34;5094411;28;20036;-78
2023/06/18 05:59:03;;;;;;;14.82;9.73;;;;;;;18.84;100.00;101421.44;5093757;28;20456;-78
2023/06/18 06:01:28;;;;;;;14.00;9.32;;;;;;;18.85;100.00;101446.53;5093682;28;20464;-78
2023/06/18 06:03:54;;;;;;;11.93;9.73;;;;;;;18.84;100.00;101421.44;5075873;28;20039;-78
2023/06/18 06:06:19;;;;;;;10.95;8.45;;;;;;;18.88;100.00;101399.53;5093545;28;20457;-78
2023/06/18 06:08:45;;;;;;;19.95;9.57;;;;;;;18.92;100.00;101408.94;5093873;28;20059;-78
2023/06/18 06:11:10;;;;;;;12.85;9.85;;;;;;;18.97;100.00;101409.22;5075872;28;20039;-78
2023/06/18 06:13:35;;;;;;;16.30;9.95;;;;;;;19.02;100.00;101407.69;5093246;28;20477;-78
2023/06/18 06:16:01;;;;;;;17.42;10.95;;;;;;;19.13;100.00;101405.56;5093526;28;20040;-78
2023/06/18 06:18:26;;;;;;;14.52;9.77;;;;;;;19.27;100.00;101390.44;5094203;28;20048;-78
2023/06/18 06:20:52;;;;;;;14.73;10.02;;;;;;;19.40;100.00;101398.75;5093560;28;20111;-79
2023/06/18 06:23:17;;;;;;;11.75;9.73;;;;;;;19.54;100.00;101403.31;5093374;28;20482;-79
2023/06/18 06:25:43;;;;;;;13.40;10.20;;;;;;;19.66;100.00;101405.56;5075291;28;20036;-79
2023/06/18 06:28:08;;;;;;;19.13;10.27;;;;;;;19.80;100.00;101404.75;5075283;28;20077;-80
2023/06/18 06:30:34;;;;;;;17.00;9.95;;;;;;;19.94;100.00;101407.63;5093791;28;20098;-80
2023/06/18 06:33:00;;;;;;;18.83;10.18;;;;;;;20.10;100.00;101418.25;5093251;28;20499;-80
2023/06/18 06:35:27;;;;;;;13.13;9.32;;;;;;;20.23;100.00;101413.00;5074965;28;20040;-80
2023/06/18 06:37:53;;;;;;;12.10;9.05;;;;;;;20.38;100.00;101417.56;5075166;28;20028;-80
2023/06/18 06:40:18;;;;;;;15.98;9.20;;;;;;;20.53;100.00;101409.41;5093293;28;20088;-80
2023/06/18 06:42:44;;;;;;;15.70;9.07;;;;;;;20.69;100.00;101405.63;5093709;28;20052;-81
2023/06/18 06:45:09;;;;;;;15.25;9.30;;;;;;;20.83;100.00;101415.56;5094082;28;20032;-81
2023/06/18 06:47:35;;;;;;;11.70;8.15;;;;;;;20.96;100.00;101409.44;5093322;28;20376;-80
2023/06/18 06:50:00;;;;;;;10.68;8.20;;;;;;;21.10;100.00;101407.69;5096622;28;20031;-80
2023/06/18 06:52:26;;;;;;;11.80;7.80;;;;;;;21.29;100.00;101414.31;5097479;28;20045;-79
2023/06/18 06:54:51;;;;;;;15.00;8.05;;;;;;;21.45;100.00;101410.44;5097219;28;20038;-80
2023/06/18 06:57:16;;;;;;;14.32;7.88;;;;;;;21.61;100.00;101415.59;5096784;28;20438;-80
2023/06/18 06:59:42;;;;;;;12.55;7.82;;;;;;;21.77;100.00;101413.63;5097381;28;20456;-79
2023/06/18 07:02:07;;;;;;;9.73;7.50;;;;;;;21.93;100.00;101416.00;5096987;28;20463;-79
2023/06/18 07:04:32;;;;;;;14.25;7.57;;;;;;;22.02;100.00;101416.69;5097148;28;20468;-81
2023/06/18 07:06:58;;;;;;;10.98;7.72;;;;;;;22.02;100.00;101422.91;5097384;28;20059;-80
2023/06/18 07:09:23;;;;;;;18.17;7.65;;;;;;;22.08;100.00;101426.69;5096547;28;20498;-79
2023/06/18 07:11:48;;;;;;;11.32;8.07;;;;;;;22.12;100.00;101424.41;5078675;28;20431;-80
2023/06/18 07:14:15;;;;;;;12.75;7.53;;;;;;;22.22;100.00;101424.06;5096452;28;20028;-80
2023/06/18 07:16:40;;;;;;;10.20;7.32;;;;;;;22.33;100.00;101421.63;5078186;28;20464;-80
2023/06/18 07:19:06;;;;;;;8.80;7.20;;;;;;;22.44;100.00;101419.38;5097057;28;20036;-80
2023/06/18 07:21:31;;;;;;;11.23;7.43;;;;;;;22.57;100.00;101415.84;5096643;28;20051;-79
2023/06/18 07:23:56;;;;;;;19.75;8.60;;;;;;;22.68;100.00;101420.69;5096895;28;20409;-79
2023/06/18 07:26:22;;;;;;;12.40;7.55;;;;;;;22.84;100.00;101419.44;5096476;28;20031;-79
2023/06/18 07:28:48;;;;;;;10.02;7.18;;;;;;;22.96;100.00;101423.22;5096622;28;20032;-83
2023/06/18 07:31:13;;;;;;;11.70;7.03;;;;;;;23.09;100.00;101427.00;5096610;28;20165;-79
2023/06/18 07:33:39;;;;;;;16.08;7.72;;;;;;;23.21;100.00;101419.91;5096309;28;20020;-76
2023/06/18 07:36:04;;;;;;;16.63;7.90;;;;;;;23.20;93.79;101421.81;5078661;28;20118;-77
2023/06/18 07:38:30;;;;;;;11.23;7.00;;;;;;;23.25;93.57;101413.03;5077673;28;20443;-78
2023/06/18 07:40:55;;;;;;;10.10;7.15;;;;;;;23.22;89.18;101414.28;5096227;28;20044;-78
2023/06/18 07:43:20;;;;;;;18.55;7.30;;;;;;;23.14;100.00;101419.94;5096499;28;20028;-80
2023/06/18 07:45:46;;;;;;;8.25;5.88;;;;;;;23.04;100.00;101419.47;5095991;28;20505;-81
2023/06/18 07:48:11;;;;;;;8.98;6.35;;;;;;;22.94;99.37;101413.63;5096155;28;20434;-82
2023/06/18 07:50:36;;;;;;;9.52;6.47;;;;;;;22.86;100.00;101426.34;5096063;28;20039;-81
2023/06/18 07:53:03;;;;;;;7.65;6.15;;;;;;;22.74;100.00;101419.84;5096315;28;20514;-82
2023/06/18 07:55:28;;;;;;;10.05;6.18;;;;;;;22.64;100.00;101424.84;5095757;28;20082;-81
2023/06/18 07:57:54;;;;;;;13.55;6.22;;;;;;;22.56;100.00;101417.72;5095935;28;20036;-80
2023/06/18 08:00:19;;;;;;;7.60;6.13;;;;;;;22.50;100.00;101423.97;5094723;28;20093;-78
2023/06/18 08:02:46;;;;;;;7.38;6.38;;;;;;;22.45;100.00;101423.72;5095742;28;20254;-78
2023/06/18 08:05:11;;;;;;;13.20;7.07;;;;;;;22.41;100.00;101426.03;5095896;28;20020;-78
2023/06/18 08:07:36;;;;;;;9.00;6.05;;;;;;;22.39;100.00;101417.25;5096277;28;20059;-77
2023/06/18 08:10:02;;;;;;;8.52;6.22;;;;;;;22.39;100.00;101419.97;5096235;28;20059;-78
2023/06/18 08:12:28;;;;;;;7.90;6.25;;;;;;;22.41;100.00;101431.44;5077778;28;20119;-77
2023/06/18 08:14:53;;;;;;;9.80;6.68;;;;;;;22.50;100.00;101422.09;5095668;28;20093;-78
2023/06/18 08:17:18;;;;;;;12.18;6.78;;;;;;;22.59;100.00;101419.22;5095613;28;20048;-78
2023/06/18 08:19:45;;;;;;;7.65;6.85;;;;;;;22.62;100.00;101414.19;5095795;28;20073;-79
2023/06/18 08:22:15;;;;;;;7.50;6.47;;;;;;;22.74;100.00;101410.91;5095552;28;20035;-79
2023/06/18 08:24:41;;;;;;;10.73;7.50;;;;;;;22.84;100.00;101411.28;5095705;28;20116;-78
2023/06/18 08:27:07;;;;;;;8.18;6.25;;;;;;;22.93;100.00;101414.66;5095629;28;20364;-78
2023/06/18 08:29:33;;;;;;;9.48;6.38;;;;;;;22.98;100.00;101404.84;5076990;28;20035;-80
2023/06/18 08:32:04;;;;;;;10.63;6.38;;;;;;;23.06;100.00;101406.53;5095336;28;20032;-79
2023/06/18 08:34:34;;;;;;;7.82;6.75;;;;;;;23.08;100.00;101399.03;5095145;28;20526;-78
2023/06/18 08:37:00;;;;;;;10.38;6.50;;;;;;;23.18;100.00;101394.00;5060736;28;20480;-79
2023/06/18 08:39:28;;;;;;;8.68;6.25;;;;;;;23.36;100.00;101392.53;5095115;28;20080;-79
2023/06/18 08:41:55;;;;;;;7.30;6.00;;;;;;;23.61;100.00;101392.72;5095729;28;20032;-79
2023/06/18 08:44:23;;;;;;;7.22;6.03;;;;;;;23.79;98.72;101402.09;5095018;28;20506;-79
2023/06/18 08:46:49;;;;;;;14.10;6.25;;;;;;;24.02;95.04;101399.75;5094819;28;20028;-81
2023/06/18 08:49:16;;;;;;;8.45;6.53;;;;;;;24.21;90.75;101394.41;5096876;28;20048;-85
2023/06/18 08:51:43;;;;;;;10.48;6.97;;;;;;;24.33;88.56;101392.69;5099016;28;20056;-83
2023/06/18 08:54:13;;;;;;;7.72;6.13;;;;;;;24.53;86.95;101387.13;5094897;28;20089;-80
2023/06/18 08:56:47;;;;;;;7.23;6.07;;;;;;;24.67;89.89;101384.38;5095188;28;20115;-80
2023/06/18 08:59:13;;;;;;;10.20;6.32;;;;;;;24.78;83.30;101384.50;5094816;28;20390;-77
2023/06/18 09:01:39;;;;;;;6.72;5.70;;;;;;;24.86;90.02;101380.66;5094736;28;20103;-81
2023/06/18 09:04:06;;;;;;;8.55;6.60;;;;;;;24.92;82.81;101384.41;5094461;28;20028;-86
2023/06/18 09:06:32;;;;;;;7.10;6.13;;;;;;;24.91;79.04;101382.72;5095375;28;20031;-82
2023/06/18 09:09:00;;;;;;;9.35;6.10;;;;;;;24.95;84.67;101387.50;5094729;28;20394;-81
2023/06/18 09:11:26;;;;;;;7.57;6.43;;;;;;;24.94;80.70;101377.66;5094059;28;20031;-84
2023/06/18 09:13:51;;;;;;;9.55;6.55;;;;;;;24.97;89.36;101379.09;5095272;28;20148;-82
2023/06/18 09:16:16;;;;;;;10.43;6.75;;;;;;;24.94;74.96;101377.66;5094800;28;20070;-81
2023/06/18 09:18:42;;;;;;;8.18;6.45;;;;;;;24.92;78.64;101370.78;5094591;28;20043;-80
2023/06/18 09:21:08;;;;;;;12.05;6.50;;;;;;;25.06;77.72;101388.66;5076452;28;20116;-81
2023/06/18 09:23:33;;;;;;;8.23;6.97;;;;;;;25.13;77.22;101391.34;5094449;28;20036;-81
2023/06/18 09:26:00;;;;;;;14.13;7.20;;;;;;;25.05;84.16;101388.88;5094355;28;20461;-79
2023/06/18 09:28:27;;;;;;;15.93;7.47;;;;;;;25.15;86.34;101394.66;5093840;28;20088;-75
2023/06/18 09:31:01;;;;;;;11.82;7.10;;;;;;;25.34;83.76;101384.66;5093699;28;20110;-76
2023/06/18 09:33:30;;;;;;;11.20;7.80;;;;;;;25.39;86.02;101379.38;5094682;28;20117;-74
2023/06/18 09:36:03;;;;;;;12.25;7.35;;;;;;;25.39;84.76;101368.47;5094832;28;20040;-77
2023/06/18 09:38:47;;;;;;;11.77;8.00;;;;;;;25.45;83.99;101375.78;5094800;28;20096;-76
2023/06/18 09:41:14;;;;;;;20.45;7.70;;;;;;;25.34;86.29;101374.59;5076447;28;20464;-78
2023/06/18 09:43:47;;;;;;;12.52;7.50;;;;;;;25.34;86.81;101369.16;5093757;28;20031;-76
2023/06/18 09:46:13;;;;;;;14.73;7.50;;;;;;;25.29;84.96;101371.69;5094232;28;20036;-78
2023/06/18 09:48:41;;;;;;;10.75;7.80;;;;;;;25.22;83.77;101372.81;5075622;28;20032;-77
2023/06/18 09:51:07;;;;;;;9.32;7.78;;;;;;;25.20;86.94;101378.50;5075383;28;20031;-76
2023/06/18 09:53:33;;;;;;;13.40;7.97;;;;;;;25.15;83.83;101371.00;5093454;28;20039;-76
2023/06/18 09:56:09;;;;;;;10.63;8.02;;;;;;;25.01;84.12;101372.16;5093230;28;20039;-75
2023/06/18 09:58:48;;;;;;;15.15;7.65;;;;;;;24.82;89.07;101365.81;5093499;28;20028;-75
2023/06/18 10:01:15;;;;;;;11.88;7.78;;;;;;;24.67;89.37;101365.31;5093486;28;20039;-75
2023/06/18 10:03:41;;;;;;;11.35;7.95;;;;;;;24.51;92.47;101375.63;5093566;28;20040;-77
2023/06/18 10:06:20;;;;;;;9.85;7.45;;;;;;;24.38;92.58;101382.00;5093134;28;20032;-76
2023/06/18 10:08:50;;;;;;;9.18;8.13;;;;;;;24.25;89.92;101382.91;5075736;28;20024;-76
2023/06/18 10:11:17;;;;;;;12.07;8.15;;;;;;;24.21;91.31;101380.81;5075929;28;20035;-77
2023/06/18 10:13:52;;;;;;;14.13;7.78;;;;;;;24.16;91.92;101376.03;5093813;28;20460;-78
2023/06/18 10:16:19;;;;;;;10.02;6.90;;;;;;;24.19;95.46;101372.88;5092828;28;20480;-77
2023/06/18 10:19:02;;;;;;;16.33;7.35;;;;;;;24.28;93.27;101368.03;5093929;28;20032;-78
2023/06/18 10:21:28;;;;;;;14.90;7.57;;;;;;;24.33;92.46;101370.09;5075232;28;20020;-78
2023/06/18 10:24:11;;;;;;;10.80;7.80;;;;;;;24.29;94.45;101367.81;5092882;28;20060;-76
2023/06/18 10:26:38;;;;;;;22.67;9.07;;;;;;;24.22;95.27;101364.31;5093750;28;20028;-78
2023/06/18 10:29:05;;;;;;;11.57;8.02;;;;;;;24.15;99.48;101359.94;5074953;28;20028;-77
2023/06/18 10:31:31;;;;;;;11.43;7.50;;;;;;;24.07;100.00;101361.88;5093603;28;20082;-76
2023/06/18 10:33:57;;;;;;;14.05;7.30;;;;;;;24.01;99.25;101362.72;5092862;28;20483;-77
2023/06/18 10:36:23;;;;;;;9.95;5.88;;;;;;;23.93;96.14;101361.09;5093752;28;20036;-76
2023/06/18 10:38:49;;;;;;;10.50;6.40;;;;;;;23.87;98.81;101367.41;5058824;28;20035;-77
2023/06/18 10:41:20;;;;;;;9.23;7.25;;;;;;;23.78;94.57;101357.75;5093219;28;20056;-77
2023/06/18 10:43:52;;;;;;;9.00;6.15;;;;;;;23.79;96.42;101350.47;5093200;28;20111;-77
2023/06/18 10:46:18;;;;;;;12.35;6.38;;;;;;;23.79;90.52;101347.75;5075004;28;20039;-77
2023/06/18 10:49:15;;;;;;;9.82;5.97;;;;;;;23.85;94.12;101349.59;5092877;28;20456;-74
2023/06/18 10:52:05;;;;;;;10.27;6.32;;;;;;;23.97;89.91;101349.78;5093056;28;20376;-76
2023/06/18 10:54:30;;;;;;;7.05;5.20;;;;;;;24.08;91.11;101352.66;5092839;28;20033;-75
2023/06/18 10:56:58;;;;;;;9.52;6.00;;;;;;;24.30;91.30;101349.59;5092519;28;20066;-79
2023/06/18 10:59:42;;;;;;;8.02;5.55;;;;;;;24.62;89.18;101350.50;5092763;28;20044;-75
2023/06/18 11:02:07;;;;;;;7.72;5.78;;;;;;;25.05;88.58;101342.59;5093126;28;20111;-79
2023/06/18 11:04:34;;;;;;;6.15;5.05;;;;;;;25.36;82.26;101346.31;5093013;28;20068;-80
2023/06/18 11:07:12;;;;;;;11.82;5.70;;;;;;;25.63;88.09;101339.53;5092918;28;20028;-77
2023/06/18 11:09:58;;;;;;;7.90;5.70;;;;;;;25.85;82.66;101339.03;5092907;28;20045;-77
2023/06/18 11:12:37;;;;;;;10.77;6.00;;;;;;;25.92;80.09;101330.81;5093095;28;20032;-76